Time;durP1;ratioP1;P1;durP2;ratioP2;P2;SDS_P1;SDS_P2;PMS_P1;PMS_P2;Temp;Humidity;BMP_temperature;BMP_pressure;BME280_temperature;BME280_humidity;BME280_pressure;Samples;Min_cycle;Max_cycle;Signal;HPM_P1;HPM_P2
2021/05/15 00:00:12;;;;;;;3.80;3.40;;;;;;;12.49;85.17;98667.75;5095383;28;20288;-75
2021/05/15 00:02:38;;;;;;;3.40;2.70;;;;;;;12.50;83.52;98664.03;5095316;28;20192;-75
2021/05/15 00:05:07;;;;;;;2.88;2.15;;;;;;;12.51;84.28;98652.28;5095489;28;20279;-75
2021/05/15 00:07:33;;;;;;;3.30;2.35;;;;;;;12.51;84.43;98650.44;5095170;28;20290;-76
2021/05/15 00:09:59;;;;;;;2.97;2.65;;;;;;;12.37;84.07;98648.00;5094944;28;20280;-75
2021/05/15 00:12:26;;;;;;;2.10;2.00;;;;;;;12.27;83.88;98645.16;5095280;28;20287;-74
2021/05/15 00:14:53;;;;;;;2.50;2.33;;;;;;;12.20;84.92;98643.94;5094917;28;20229;-74
2021/05/15 00:17:20;;;;;;;2.90;2.10;;;;;;;12.13;85.11;98640.03;5095400;28;20187;-75
2021/05/15 00:19:47;;;;;;;3.05;2.80;;;;;;;12.09;85.30;98643.94;5094998;28;20235;-75
2021/05/15 00:22:14;;;;;;;4.18;2.75;;;;;;;12.02;85.79;98631.91;5095046;28;20325;-74
2021/05/15 00:24:40;;;;;;;2.90;2.70;;;;;;;12.03;85.63;98630.94;5094902;28;20272;-74
2021/05/15 00:27:06;;;;;;;4.47;2.63;;;;;;;11.98;86.11;98627.75;5095095;28;20699;-74
2021/05/15 00:29:33;;;;;;;2.65;2.45;;;;;;;11.91;85.73;98630.06;5094767;28;20644;-75
2021/05/15 00:31:59;;;;;;;3.20;2.40;;;;;;;11.84;86.07;98639.59;5095240;28;20620;-75
2021/05/15 00:34:25;;;;;;;3.30;2.65;;;;;;;11.83;86.41;98635.19;5094586;28;20203;-75
2021/05/15 00:36:52;;;;;;;2.72;2.53;;;;;;;11.81;86.50;98640.69;5095031;28;20531;-75
2021/05/15 00:39:19;;;;;;;4.03;3.63;;;;;;;11.86;85.80;98635.78;5094496;28;20263;-75
2021/05/15 00:41:45;;;;;;;9.65;7.13;;;;;;;11.94;85.95;98646.03;5094971;28;20191;-74
2021/05/15 00:44:15;;;;;;;2.92;2.72;;;;;;;11.94;86.38;98634.34;5094821;28;20610;-74
2021/05/15 00:46:45;;;;;;;3.92;3.42;;;;;;;11.99;86.15;98629.47;5094539;28;20203;-76
2021/05/15 00:49:11;;;;;;;3.40;3.10;;;;;;;11.86;86.22;98634.94;5094203;28;20184;-76
2021/05/15 00:51:38;;;;;;;3.30;3.00;;;;;;;11.99;85.60;98633.03;5094627;28;20192;-75
2021/05/15 00:54:04;;;;;;;3.25;3.05;;;;;;;11.98;85.83;98628.59;5094597;28;20536;-75
2021/05/15 00:56:32;;;;;;;3.63;3.00;;;;;;;11.75;87.08;98625.00;5094060;28;20177;-75
2021/05/15 00:59:00;;;;;;;5.22;3.70;;;;;;;11.78;86.81;98635.56;5094494;28;20261;-75
2021/05/15 01:01:26;;;;;;;3.25;2.95;;;;;;;11.80;86.07;98639.00;5094482;28;20294;-75
2021/05/15 01:03:53;;;;;;;3.90;3.55;;;;;;;11.68;87.98;98634.53;5093883;28;20180;-76
2021/05/15 01:06:20;;;;;;;3.33;3.13;;;;;;;11.74;87.54;98625.97;5094079;28;20276;-75
2021/05/15 01:08:46;;;;;;;3.50;3.20;;;;;;;11.80;87.19;98633.59;5094117;28;20250;-75
2021/05/15 01:11:13;;;;;;;3.20;2.90;;;;;;;11.99;85.63;98637.56;5094540;28;20191;-75
2021/05/15 01:13:40;;;;;;;3.40;3.10;;;;;;;11.91;86.27;98630.06;5093927;28;20252;-75
2021/05/15 01:16:06;;;;;;;3.70;2.63;;;;;;;11.93;85.71;98625.41;5094006;28;20283;-76
2021/05/15 01:18:33;;;;;;;4.93;4.53;;;;;;;11.99;85.41;98618.69;5093839;28;20233;-74
2021/05/15 01:21:00;;;;;;;6.82;6.05;;;;;;;12.00;85.45;98636.59;5093758;28;20192;-74
2021/05/15 01:23:27;;;;;;;8.57;7.03;;;;;;;11.96;86.19;98633.28;5094191;28;20275;-74
2021/05/15 01:25:53;;;;;;;4.30;3.90;;;;;;;11.98;85.43;98631.28;5093743;28;20219;-75
2021/05/15 01:28:19;;;;;;;3.72;3.03;;;;;;;12.07;83.66;98632.41;5093869;28;20253;-75
2021/05/15 01:30:45;;;;;;;12.00;10.38;;;;;;;11.93;84.92;98624.56;5093680;28;20215;-75
2021/05/15 01:33:12;;;;;;;20.48;15.65;;;;;;;11.74;86.03;98628.69;5093549;28;20337;-75
2021/05/15 01:35:38;;;;;;;3.30;3.10;;;;;;;11.90;85.52;98620.28;5093652;28;20219;-77
2021/05/15 01:38:05;;;;;;;3.95;3.65;;;;;;;11.78;85.30;98627.47;5093785;28;20196;-75
2021/05/15 01:40:31;;;;;;;7.88;6.88;;;;;;;11.92;85.55;98630.91;5093568;28;20195;-75
2021/05/15 01:42:57;;;;;;;5.30;4.50;;;;;;;11.67;85.43;98622.06;5094111;28;20191;-75
2021/05/15 01:45:26;;;;;;;5.00;4.57;;;;;;;11.63;85.34;98615.19;5092963;28;20219;-75
2021/05/15 01:47:52;;;;;;;4.10;3.70;;;;;;;11.75;85.84;98622.28;5093378;28;20223;-75
2021/05/15 01:50:18;;;;;;;4.97;4.57;;;;;;;11.72;85.46;98629.78;5093380;28;20254;-74
2021/05/15 01:52:44;;;;;;;4.70;4.30;;;;;;;11.67;84.86;98622.91;5093900;28;20238;-76
2021/05/15 01:55:15;;;;;;;4.90;4.50;;;;;;;11.68;84.81;98618.38;5092985;28;20203;-75
2021/05/15 01:57:41;;;;;;;4.60;4.30;;;;;;;11.78;84.86;98623.88;5092989;28;20180;-74
2021/05/15 02:00:09;;;;;;;6.47;4.88;;;;;;;11.85;85.11;98614.38;5093430;28;20214;-75
2021/05/15 02:02:35;;;;;;;4.82;4.28;;;;;;;11.84;84.81;98618.88;5092929;28;20235;-75
2021/05/15 02:05:01;;;;;;;4.15;3.75;;;;;;;11.85;84.21;98623.31;5093553;28;21090;-75
2021/05/15 02:07:27;;;;;;;4.65;4.30;;;;;;;11.67;85.44;98616.66;5093065;28;20276;-76
2021/05/15 02:09:53;;;;;;;6.63;4.80;;;;;;;11.56;85.24;98606.72;5092969;28;20597;-75
2021/05/15 02:12:20;;;;;;;5.60;4.85;;;;;;;11.67;85.43;98604.03;5093174;28;20204;-75
2021/05/15 02:14:46;;;;;;;5.63;4.50;;;;;;;11.68;85.11;98613.81;5093344;28;20196;-76
2021/05/15 02:17:12;;;;;;;8.00;7.20;;;;;;;11.89;85.31;98599.66;5092796;28;20215;-75
2021/05/15 02:19:38;;;;;;;5.32;4.80;;;;;;;11.99;84.32;98611.44;5092691;28;20243;-75
2021/05/15 02:22:04;;;;;;;5.13;4.60;;;;;;;12.02;83.80;98610.34;5092787;28;20191;-74
2021/05/15 02:24:31;;;;;;;4.53;4.13;;;;;;;11.97;84.42;98608.00;5092484;28;20271;-75
2021/05/15 02:26:57;;;;;;;4.80;4.30;;;;;;;11.87;84.60;98612.38;5092795;28;20607;-75
2021/05/15 02:29:24;;;;;;;7.40;4.63;;;;;;;12.00;84.26;98605.06;5092947;28;20203;-75
2021/05/15 02:31:50;;;;;;;4.10;3.70;;;;;;;12.07;83.68;98597.34;5092410;28;20184;-74
2021/05/15 02:34:16;;;;;;;5.10;4.60;;;;;;;12.04;83.19;98606.53;5092442;28;20256;-74
2021/05/15 02:36:42;;;;;;;4.32;4.03;;;;;;;12.03;83.86;98606.66;5092671;28;20183;-74
2021/05/15 02:39:08;;;;;;;5.03;4.53;;;;;;;11.99;84.51;98607.91;5092060;28;20281;-75
2021/05/15 02:41:34;;;;;;;4.85;4.45;;;;;;;12.09;83.71;98600.78;5092642;28;20241;-75
2021/05/15 02:44:00;;;;;;;5.97;4.85;;;;;;;11.87;83.31;98602.50;5092619;28;20219;-73
2021/05/15 02:46:27;;;;;;;5.18;4.68;;;;;;;12.05;83.45;98602.00;5092815;28;20672;-75
2021/05/15 02:48:54;;;;;;;5.45;4.95;;;;;;;11.92;82.70;98604.81;5092318;28;20224;-74
2021/05/15 02:51:20;;;;;;;5.45;4.95;;;;;;;11.46;83.89;98598.50;5092507;28;20708;-73
2021/05/15 02:53:46;;;;;;;5.38;4.78;;;;;;;11.32;85.20;98605.91;5092181;28;20272;-75
2021/05/15 02:56:12;;;;;;;4.78;4.38;;;;;;;11.42;85.74;98599.69;5091272;28;20200;-76
2021/05/15 02:58:38;;;;;;;5.47;5.03;;;;;;;11.51;84.80;98599.94;5092065;28;20212;-75
2021/05/15 03:01:04;;;;;;;6.18;5.63;;;;;;;11.58;84.90;98601.22;5092405;28;20237;-76
2021/05/15 03:03:31;;;;;;;6.82;5.18;;;;;;;11.71;84.38;98601.09;5092339;28;20206;-75
2021/05/15 03:05:58;;;;;;;6.45;5.85;;;;;;;11.72;84.25;98605.50;5092267;28;20676;-75
2021/05/15 03:08:24;;;;;;;6.03;5.53;;;;;;;11.62;83.55;98600.84;5091585;28;20204;-74
2021/05/15 03:10:51;;;;;;;8.35;7.55;;;;;;;11.58;84.26;98590.44;5092210;28;20709;-75
2021/05/15 03:13:17;;;;;;;130.05;119.05;;;;;;;11.55;84.67;98591.50;5091744;28;20207;-75
2021/05/15 03:15:43;;;;;;;6.47;5.88;;;;;;;11.54;84.23;98592.50;5092413;28;20238;-75
2021/05/15 03:18:09;;;;;;;7.65;5.85;;;;;;;11.64;84.02;98579.13;5092533;28;20298;-77
2021/05/15 03:20:36;;;;;;;6.07;5.55;;;;;;;11.73;83.88;98577.56;5092289;28;20187;-75
2021/05/15 03:23:02;;;;;;;6.70;6.07;;;;;;;11.64;83.56;98581.84;5091711;28;20253;-76
2021/05/15 03:25:28;;;;;;;7.80;6.50;;;;;;;11.53;84.04;98582.66;5092149;28;20525;-74
2021/05/15 03:27:54;;;;;;;5.85;5.35;;;;;;;11.65;83.83;98575.47;5092027;28;20223;-74
2021/05/15 03:30:21;;;;;;;10.82;7.28;;;;;;;11.58;83.63;98580.50;5092165;28;20530;-76
2021/05/15 03:32:47;;;;;;;7.63;6.15;;;;;;;11.67;83.84;98587.00;5092121;28;20184;-75
2021/05/15 03:35:15;;;;;;;5.90;5.00;;;;;;;11.73;83.06;98581.09;5092168;28;20274;-75
2021/05/15 03:37:42;;;;;;;6.53;5.90;;;;;;;11.65;83.25;98586.25;5091373;28;20634;-75
2021/05/15 03:40:09;;;;;;;7.45;6.80;;;;;;;11.77;82.88;98585.28;5091594;28;20257;-73
2021/05/15 03:42:36;;;;;;;6.65;5.60;;;;;;;11.79;82.64;98586.03;5092016;28;20603;-76
2021/05/15 03:45:02;;;;;;;7.72;6.93;;;;;;;11.74;82.55;98580.16;5091705;28;20287;-76
2021/05/15 03:47:28;;;;;;;7.22;5.90;;;;;;;11.65;83.04;98575.47;5091838;28;20676;-75
2021/05/15 03:49:54;;;;;;;9.07;7.28;;;;;;;11.33;84.16;98577.97;5091530;28;20188;-75
2021/05/15 03:52:20;;;;;;;6.25;5.65;;;;;;;11.24;85.40;98574.19;5091919;28;20660;-75
2021/05/15 03:54:47;;;;;;;6.65;5.95;;;;;;;11.41;84.42;98576.41;5091670;28;20216;-75
2021/05/15 03:57:13;;;;;;;6.78;6.03;;;;;;;11.57;84.05;98578.75;5091815;28;20539;-75
2021/05/15 03:59:40;;;;;;;7.40;6.50;;;;;;;11.58;83.35;98585.88;5091740;28;20203;-74
2021/05/15 04:02:06;;;;;;;7.07;6.47;;;;;;;11.65;83.41;98581.72;5091467;28;20180;-74
2021/05/15 04:04:33;;;;;;;6.50;5.80;;;;;;;11.64;83.15;98584.53;5091743;28;20275;-75
2021/05/15 04:07:00;;;;;;;6.30;5.70;;;;;;;11.65;82.99;98586.25;5091920;28;20221;-75
2021/05/15 04:09:26;;;;;;;6.78;6.07;;;;;;;11.72;83.11;98592.03;5095521;28;20231;-76
2021/05/15 04:11:53;;;;;;;7.75;7.05;;;;;;;11.80;82.65;98585.06;5095539;28;20542;-76
2021/05/15 04:14:28;;;;;;;12.02;9.05;;;;;;;11.80;82.93;98585.06;5095499;28;20195;-76
2021/05/15 04:17:13;;;;;;;7.00;6.30;;;;;;;11.82;82.01;98585.75;5095539;28;20186;-75
2021/05/15 04:19:39;;;;;;;10.00;9.00;;;;;;;11.40;83.68;98580.09;5095242;28;20606;-75
2021/05/15 04:22:05;;;;;;;13.27;10.90;;;;;;;11.47;84.16;98581.31;5094840;28;20210;-75
2021/05/15 04:24:32;;;;;;;8.82;6.68;;;;;;;11.61;83.38;98577.53;5094887;28;20275;-75
2021/05/15 04:27:02;;;;;;;7.30;6.60;;;;;;;11.65;83.60;98575.47;5095172;28;20252;-74
2021/05/15 04:29:28;;;;;;;8.50;7.20;;;;;;;11.75;83.78;98575.59;5095079;28;20271;-75
2021/05/15 04:31:56;;;;;;;10.18;9.18;;;;;;;11.95;83.00;98577.59;5094642;28;20337;-76
2021/05/15 04:34:23;;;;;;;11.10;8.10;;;;;;;12.09;81.60;98580.03;5094461;28;20184;-75
2021/05/15 04:36:49;;;;;;;9.05;8.20;;;;;;;12.07;81.61;98573.94;5094454;28;20257;-75
2021/05/15 04:39:16;;;;;;;9.40;8.40;;;;;;;12.12;81.65;98578.97;5094482;28;20253;-75
2021/05/15 04:41:42;;;;;;;10.65;8.93;;;;;;;12.05;82.01;98573.19;5094935;28;20638;-76
2021/05/15 04:44:09;;;;;;;13.05;11.65;;;;;;;12.07;82.46;98573.06;5094313;28;20295;-76
2021/05/15 04:46:35;;;;;;;8.25;7.45;;;;;;;12.00;82.47;98574.53;5094707;28;20286;-75
2021/05/15 04:49:02;;;;;;;8.10;7.30;;;;;;;12.17;81.21;98571.34;5094620;28;20725;-74
2021/05/15 04:51:28;;;;;;;9.10;7.95;;;;;;;12.20;80.98;98572.94;5094585;28;20188;-76
2021/05/15 04:53:54;;;;;;;9.63;8.25;;;;;;;12.14;81.27;98568.88;5094643;28;20271;-74
2021/05/15 04:56:20;;;;;;;10.00;8.45;;;;;;;12.21;81.47;98564.72;5094681;28;20254;-76
2021/05/15 04:58:47;;;;;;;10.05;9.07;;;;;;;12.05;82.12;98567.81;5094495;28;20699;-75
2021/05/15 05:01:14;;;;;;;9.52;8.07;;;;;;;12.03;83.04;98564.38;5094760;28;20199;-74
2021/05/15 05:03:40;;;;;;;9.15;8.25;;;;;;;12.10;81.87;98573.69;5094192;28;20203;-75
2021/05/15 05:06:06;;;;;;;10.60;9.32;;;;;;;12.17;82.18;98570.50;5094057;28;20572;-75
2021/05/15 05:08:32;;;;;;;9.50;8.50;;;;;;;12.31;80.91;98564.81;5094269;28;20228;-74
2021/05/15 05:10:58;;;;;;;10.18;8.93;;;;;;;12.29;81.00;98566.78;5093990;28;20215;-75
2021/05/15 05:13:24;;;;;;;10.00;9.00;;;;;;;12.44;79.95;98562.84;5093687;28;20202;-74
2021/05/15 05:15:50;;;;;;;10.25;9.27;;;;;;;12.52;79.32;98567.59;5094423;28;20188;-75
2021/05/15 05:18:17;;;;;;;9.02;8.27;;;;;;;12.48;79.62;98569.69;5093309;28;20215;-75
2021/05/15 05:20:44;;;;;;;10.82;8.38;;;;;;;12.40;80.62;98560.50;5093068;28;20279;-75
2021/05/15 05:23:10;;;;;;;10.35;9.35;;;;;;;12.38;80.79;98567.88;5094103;28;20683;-76
2021/05/15 05:25:36;;;;;;;11.18;10.07;;;;;;;12.44;80.41;98560.13;5093586;28;20287;-74
2021/05/15 05:28:03;;;;;;;10.45;9.07;;;;;;;12.56;80.14;98570.91;5093909;28;20649;-76
2021/05/15 05:30:29;;;;;;;9.75;8.88;;;;;;;12.61;80.09;98558.72;5094021;28;20638;-76
2021/05/15 05:32:55;;;;;;;10.05;9.15;;;;;;;12.64;79.34;98553.09;5093887;28;20724;-75
2021/05/15 05:35:22;;;;;;;11.05;9.95;;;;;;;12.59;79.81;98557.97;5093568;28;20307;-75
2021/05/15 05:37:48;;;;;;;10.95;9.95;;;;;;;12.76;79.45;98561.16;5094108;28;20180;-75
2021/05/15 05:40:16;;;;;;;12.70;10.70;;;;;;;12.79;79.02;98567.13;5093564;28;20280;-76
2021/05/15 05:42:42;;;;;;;10.65;9.65;;;;;;;12.74;78.78;98563.97;5093703;28;20238;-74
2021/05/15 05:45:11;;;;;;;10.63;9.52;;;;;;;12.79;79.08;98560.88;5093531;28;20192;-75
2021/05/15 05:47:38;;;;;;;11.82;10.63;;;;;;;12.80;79.26;98560.75;5093861;28;20255;-76
2021/05/15 05:50:06;;;;;;;9.98;8.98;;;;;;;12.84;78.88;98564.91;5093558;28;20271;-75
2021/05/15 05:52:34;;;;;;;13.45;12.05;;;;;;;12.94;80.06;98557.75;5093572;28;20670;-74
2021/05/15 05:55:00;;;;;;;12.60;11.45;;;;;;;12.92;79.03;98558.88;5093415;28;20204;-75
2021/05/15 05:57:26;;;;;;;10.38;9.38;;;;;;;12.92;78.49;98548.06;5092589;28;20212;-74
2021/05/15 05:59:52;;;;;;;10.25;9.27;;;;;;;12.97;78.17;98545.81;5092940;28;20210;-75
2021/05/15 06:02:18;;;;;;;12.20;9.63;;;;;;;12.91;78.40;98549.91;5091601;28;20208;-76
2021/05/15 06:04:44;;;;;;;10.55;9.55;;;;;;;12.93;78.49;98550.66;5093562;28;20634;-75
2021/05/15 06:07:12;;;;;;;9.23;8.43;;;;;;;13.03;77.77;98550.72;5092602;28;20242;-76
2021/05/15 06:09:39;;;;;;;8.68;7.88;;;;;;;12.96;77.96;98545.94;5092864;28;20389;-74
2021/05/15 06:12:06;;;;;;;9.98;8.95;;;;;;;12.88;79.01;98563.66;5092923;28;20211;-75
2021/05/15 06:14:33;;;;;;;9.40;8.50;;;;;;;12.86;79.53;98560.22;5093130;28;20548;-74
2021/05/15 06:16:59;;;;;;;7.70;7.00;;;;;;;12.80;79.89;98555.38;5093099;28;20517;-75
2021/05/15 06:19:25;;;;;;;9.63;6.55;;;;;;;12.79;79.66;98550.94;5072305;28;20177;-75
2021/05/15 06:21:51;;;;;;;7.28;6.68;;;;;;;12.69;79.97;98556.25;5072314;28;20216;-76
2021/05/15 06:24:17;;;;;;;7.80;6.53;;;;;;;12.67;80.38;98558.22;5072706;28;20281;-75
2021/05/15 06:26:44;;;;;;;8.30;6.30;;;;;;;12.75;79.95;98551.31;5072235;28;20185;-75
2021/05/15 06:29:10;;;;;;;7.05;6.32;;;;;;;12.72;80.74;98545.19;5072510;28;20204;-75
2021/05/15 06:31:36;;;;;;;6.72;6.13;;;;;;;12.80;79.93;98554.47;5089871;28;20204;-74
2021/05/15 06:34:03;;;;;;;6.45;5.85;;;;;;;12.70;79.86;98547.16;5092433;28;20197;-75
2021/05/15 06:36:29;;;;;;;7.68;5.63;;;;;;;12.65;80.09;98554.78;5092002;28;20223;-75
2021/05/15 06:38:55;;;;;;;6.15;5.65;;;;;;;12.53;81.45;98569.31;5091959;28;20770;-75
2021/05/15 06:41:21;;;;;;;7.50;6.25;;;;;;;12.36;83.68;98564.44;5092740;28;20194;-76
2021/05/15 06:43:48;;;;;;;8.23;6.72;;;;;;;12.29;85.45;98556.84;5092266;28;20275;-75
2021/05/15 06:46:14;;;;;;;6.70;6.10;;;;;;;12.34;86.19;98542.09;5092544;28;20231;-75
2021/05/15 06:48:40;;;;;;;10.05;6.93;;;;;;;12.28;86.38;98528.16;5091956;28;20285;-75
2021/05/15 06:51:06;;;;;;;7.50;6.68;;;;;;;12.30;87.66;98539.69;5092286;28;20598;-74
2021/05/15 06:53:33;;;;;;;7.90;6.80;;;;;;;12.39;87.20;98542.59;5092095;28;20257;-75
2021/05/15 06:55:59;;;;;;;6.95;6.25;;;;;;;12.51;85.46;98539.72;5092299;28;20202;-75
2021/05/15 06:58:25;;;;;;;5.78;5.28;;;;;;;12.51;84.93;98538.88;5092301;28;20245;-76
2021/05/15 07:00:52;;;;;;;4.97;4.47;;;;;;;12.62;82.21;98530.75;5092111;28;20220;-76
2021/05/15 07:03:18;;;;;;;7.43;5.47;;;;;;;12.64;82.74;98542.28;5091852;28;20183;-76
2021/05/15 07:05:44;;;;;;;5.47;4.65;;;;;;;12.54;82.53;98541.31;5092435;28;20227;-76
2021/05/15 07:08:10;;;;;;;4.70;4.30;;;;;;;12.53;82.90;98550.41;5092191;28;20660;-76
2021/05/15 07:10:36;;;;;;;6.18;4.68;;;;;;;12.75;82.03;98548.63;5091384;28;20181;-75
2021/05/15 07:13:02;;;;;;;3.78;3.40;;;;;;;12.71;79.56;98538.06;5091502;28;20295;-76
2021/05/15 07:15:29;;;;;;;3.90;3.60;;;;;;;12.69;79.43;98539.19;5092258;28;20756;-76
2021/05/15 07:17:56;;;;;;;5.07;3.58;;;;;;;12.71;79.70;98538.06;5092518;28;20244;-76
2021/05/15 07:20:22;;;;;;;3.22;2.92;;;;;;;12.81;78.48;98542.72;5092548;28;20861;-75
2021/05/15 07:22:48;;;;;;;2.92;2.72;;;;;;;12.76;79.22;98529.59;5091737;28;20199;-75
2021/05/15 07:25:16;;;;;;;3.75;3.45;;;;;;;12.76;79.25;98529.59;5092161;28;20617;-75
2021/05/15 07:27:42;;;;;;;3.80;3.50;;;;;;;12.77;79.73;98517.78;5092275;28;20207;-76
2021/05/15 07:30:09;;;;;;;3.85;3.55;;;;;;;12.79;80.43;98521.22;5091693;28;20354;-76
2021/05/15 07:32:35;;;;;;;5.35;3.63;;;;;;;12.52;81.52;98521.69;5091500;28;20635;-75
2021/05/15 07:35:02;;;;;;;3.65;3.45;;;;;;;12.72;81.03;98520.88;5091479;28;20241;-75
2021/05/15 07:37:28;;;;;;;4.32;3.25;;;;;;;12.73;81.23;98514.50;5092047;28;20274;-75
2021/05/15 07:39:55;;;;;;;3.83;3.53;;;;;;;13.01;80.82;98514.00;5091441;28;20249;-75
2021/05/15 07:42:21;;;;;;;5.70;3.83;;;;;;;13.05;79.38;98508.22;5092566;28;20214;-76
2021/05/15 07:44:47;;;;;;;4.10;3.70;;;;;;;13.06;80.52;98509.91;5095794;28;20865;-76
2021/05/15 07:47:13;;;;;;;5.15;4.20;;;;;;;13.21;80.20;98510.44;5095396;28;20215;-75
2021/05/15 07:49:39;;;;;;;4.45;3.75;;;;;;;13.32;80.52;98517.66;5095810;28;20200;-75
2021/05/15 07:52:06;;;;;;;21.95;17.73;;;;;;;13.60;80.06;98513.41;5095288;28;20180;-75
2021/05/15 07:54:33;;;;;;;21.73;19.42;;;;;;;13.64;79.13;98511.28;5095795;28;20602;-74
2021/05/15 07:56:59;;;;;;;8.10;7.13;;;;;;;13.51;80.08;98511.50;5095549;28;20634;-76
2021/05/15 07:59:25;;;;;;;8.13;5.10;;;;;;;13.33;81.42;98514.81;5095493;28;20282;-77
2021/05/15 08:01:51;;;;;;;5.40;4.90;;;;;;;13.31;81.87;98514.09;5095225;28;20666;-75
2021/05/15 08:04:17;;;;;;;5.72;5.22;;;;;;;13.24;82.75;98514.72;5095288;28;20287;-75
2021/05/15 08:06:43;;;;;;;6.78;4.97;;;;;;;13.35;81.94;98510.13;5095556;28;20208;-75
2021/05/15 08:09:11;;;;;;;5.43;4.93;;;;;;;13.52;81.24;98516.78;5095183;28;20244;-76
2021/05/15 08:11:37;;;;;;;8.52;5.10;;;;;;;13.70;81.35;98513.44;5095577;28;20627;-76
2021/05/15 08:14:05;;;;;;;6.20;5.20;;;;;;;14.19;78.53;98504.50;5095432;28;20330;-77
2021/05/15 08:16:33;;;;;;;4.88;4.47;;;;;;;14.48;77.39;98502.84;5094829;28;20214;-75
2021/05/15 08:18:59;;;;;;;6.18;5.57;;;;;;;14.68;75.98;98493.78;5095316;28;20259;-76
2021/05/15 08:21:25;;;;;;;5.80;4.70;;;;;;;15.10;74.17;98498.03;5094814;28;20235;-75
2021/05/15 08:23:52;;;;;;;7.63;5.20;;;;;;;15.21;71.83;98495.16;5094852;28;20210;-77
2021/05/15 08:26:19;;;;;;;5.85;4.75;;;;;;;15.37;72.28;98495.41;5094887;28;20288;-75
2021/05/15 08:28:48;;;;;;;6.38;5.55;;;;;;;15.48;72.04;98486.25;5095145;28;20345;-75
2021/05/15 08:31:15;;;;;;;5.93;5.18;;;;;;;15.51;72.45;98490.50;5094700;28;20692;-76
2021/05/15 08:33:41;;;;;;;5.57;5.07;;;;;;;15.48;72.41;98483.53;5095080;28;20694;-76
2021/05/15 08:36:08;;;;;;;5.05;4.63;;;;;;;15.37;72.38;98487.25;5094942;28;20299;-75
2021/05/15 08:38:34;;;;;;;5.47;4.97;;;;;;;15.27;71.63;98482.88;5094253;28;20237;-76
2021/05/15 08:41:00;;;;;;;6.95;5.72;;;;;;;15.27;72.04;98488.31;5094197;28;20282;-75
2021/05/15 08:43:32;;;;;;;8.20;5.93;;;;;;;15.49;72.60;98482.53;5094660;28;20636;-75
2021/05/15 08:46:01;;;;;;;6.30;5.80;;;;;;;15.33;70.82;98472.31;5094625;28;20191;-74
2021/05/15 08:48:30;;;;;;;5.85;5.35;;;;;;;15.74;69.50;98472.91;5094709;28;20337;-75
2021/05/15 08:50:58;;;;;;;6.03;5.53;;;;;;;15.86;68.89;98472.72;5094636;28;20274;-75
2021/05/15 08:53:24;;;;;;;5.80;5.30;;;;;;;16.10;67.55;98466.72;5093383;28;20181;-75
2021/05/15 08:55:50;;;;;;;5.60;5.00;;;;;;;16.13;68.36;98471.84;5094212;28;20287;-76
2021/05/15 08:58:17;;;;;;;6.25;5.07;;;;;;;16.29;68.55;98468.47;5094566;28;20261;-75
2021/05/15 09:00:44;;;;;;;5.78;4.70;;;;;;;16.26;67.64;98470.47;5094531;28;20211;-75
2021/05/15 09:03:13;;;;;;;6.43;5.50;;;;;;;16.43;67.14;98476.09;5093370;28;20192;-76
2021/05/15 09:05:41;;;;;;;4.20;3.80;;;;;;;16.23;65.41;98468.06;5094328;28;20188;-75
2021/05/15 09:08:09;;;;;;;5.43;4.78;;;;;;;16.36;66.75;98466.84;5093943;28;20243;-74
2021/05/15 09:10:37;;;;;;;4.60;4.20;;;;;;;16.33;66.85;98462.59;5094179;28;20275;-75
2021/05/15 09:13:09;;;;;;;5.93;5.43;;;;;;;16.41;66.56;98461.81;5093992;28;20249;-75
2021/05/15 09:15:37;;;;;;;7.90;6.00;;;;;;;16.31;66.61;98463.75;5094240;28;20660;-74
2021/05/15 09:18:04;;;;;;;6.55;5.40;;;;;;;16.62;65.30;98469.66;5094046;28;20203;-74
2021/05/15 09:20:33;;;;;;;7.55;5.55;;;;;;;16.89;65.57;98460.56;5094220;28;20268;-75
2021/05/15 09:23:10;;;;;;;10.07;8.30;;;;;;;16.79;65.07;98462.50;5094077;28;20195;-76
2021/05/15 09:25:36;;;;;;;3.88;3.42;;;;;;;17.13;63.53;98461.81;5093627;28;20187;-75
2021/05/15 09:28:02;;;;;;;10.02;3.55;;;;;;;16.75;62.19;98448.38;5094003;28;20664;-75
2021/05/15 09:30:30;;;;;;;6.40;3.13;;;;;;;16.69;62.74;98449.00;5093416;28;20267;-75
2021/05/15 09:32:57;;;;;;;6.30;3.80;;;;;;;16.90;61.79;98450.56;5093488;28;20282;-75
2021/05/15 09:35:25;;;;;;;6.65;4.28;;;;;;;17.35;60.78;98444.94;5093386;28;20305;-75
2021/05/15 09:37:52;;;;;;;5.47;3.03;;;;;;;17.48;59.88;98442.66;5093160;28;20238;-76
2021/05/15 09:40:21;;;;;;;5.05;4.10;;;;;;;17.52;57.83;98443.16;5093299;28;20214;-75
2021/05/15 09:42:49;;;;;;;6.85;2.80;;;;;;;17.21;57.44;98440.97;5093515;28;20650;-75
2021/05/15 09:45:20;;;;;;;7.95;3.20;;;;;;;17.19;58.82;98437.53;5093314;28;20303;-75
2021/05/15 09:47:57;;;;;;;8.32;4.03;;;;;;;17.26;59.17;98438.59;5093469;28;20677;-75
2021/05/15 09:50:27;;;;;;;3.15;2.70;;;;;;;17.12;56.63;98439.19;5092855;28;20271;-75
2021/05/15 09:53:07;;;;;;;3.47;2.70;;;;;;;16.94;58.95;98432.94;5093481;28;20200;-76
2021/05/15 09:55:34;;;;;;;3.88;2.60;;;;;;;16.44;60.04;98427.03;5093503;28;20242;-76
2021/05/15 09:58:04;;;;;;;4.03;2.60;;;;;;;16.14;60.98;98430.09;5093565;28;20590;-76
2021/05/15 10:00:39;;;;;;;6.60;4.88;;;;;;;15.93;62.37;98425.81;5092868;28;20290;-75
2021/05/15 10:03:06;;;;;;;4.70;2.88;;;;;;;15.81;63.75;98427.03;5093597;28;20610;-76
2021/05/15 10:05:33;;;;;;;2.50;2.30;;;;;;;15.68;63.62;98423.78;5092736;28;20194;-76
2021/05/15 10:08:05;;;;;;;5.25;2.92;;;;;;;15.76;64.20;98423.91;5092764;28;20264;-75
2021/05/15 10:10:32;;;;;;;2.75;2.45;;;;;;;15.42;61.00;98417.19;5092996;28;20636;-76
2021/05/15 10:12:58;;;;;;;5.47;4.00;;;;;;;15.38;61.48;98413.06;5092852;28;20313;-75
2021/05/15 10:15:25;;;;;;;6.60;2.88;;;;;;;15.41;62.33;98415.44;5092733;28;20267;-75
2021/05/15 10:17:51;;;;;;;7.90;2.90;;;;;;;15.42;61.84;98410.88;5093027;28;20411;-75
2021/05/15 10:20:17;;;;;;;3.42;2.63;;;;;;;15.49;60.97;98406.59;5092533;28;20211;-76
2021/05/15 10:22:46;;;;;;;9.05;6.75;;;;;;;15.49;62.52;98403.00;5092643;28;20278;-74
2021/05/15 10:25:14;;;;;;;4.47;3.30;;;;;;;15.62;62.63;98395.38;5092664;28;20614;-74
2021/05/15 10:27:41;;;;;;;7.70;3.60;;;;;;;15.55;62.91;98397.84;5092713;28;20204;-76
2021/05/15 10:30:17;;;;;;;4.72;2.70;;;;;;;15.63;63.31;98392.53;5092569;28;20299;-75
2021/05/15 10:32:55;;;;;;;4.00;2.35;;;;;;;15.74;62.95;98393.38;5092876;28;20187;-75
2021/05/15 10:35:31;;;;;;;2.58;2.10;;;;;;;15.67;62.75;98393.09;5092130;28;20195;-76
2021/05/15 10:38:07;;;;;;;7.55;2.42;;;;;;;15.54;62.26;98390.72;5092661;28;20190;-76
2021/05/15 10:40:47;;;;;;;4.82;2.10;;;;;;;15.49;62.59;98384.00;5092691;28;20949;-75
2021/05/15 10:43:14;;;;;;;7.65;5.25;;;;;;;15.53;62.98;98378.13;5092664;28;20183;-74
2021/05/15 10:45:42;;;;;;;8.07;3.35;;;;;;;15.45;61.70;98371.78;5091926;28;20604;-76
2021/05/15 10:48:14;;;;;;;5.50;3.40;;;;;;;15.60;63.70;98364.81;5091796;28;20218;-76
2021/05/15 10:50:54;;;;;;;35.33;20.98;;;;;;;15.67;63.73;98354.22;5092192;28;20281;-76
2021/05/15 10:53:23;;;;;;;8.45;5.03;;;;;;;15.74;62.55;98358.94;5092405;28;20269;-75
2021/05/15 10:56:09;;;;;;;4.97;2.30;;;;;;;15.67;63.56;98354.22;5092119;28;20320;-76
2021/05/15 10:58:47;;;;;;;4.40;2.05;;;;;;;15.45;62.98;98350.94;5092068;28;20268;-76
2021/05/15 11:01:15;;;;;;;3.83;2.42;;;;;;;15.27;62.46;98355.44;5092256;28;20948;-76
2021/05/15 11:03:42;;;;;;;4.57;2.00;;;;;;;15.05;61.71;98346.66;5092237;28;20668;-77
2021/05/15 11:06:13;;;;;;;3.72;2.42;;;;;;;14.99;63.10;98356.25;5091439;28;20238;-76
2021/05/15 11:08:41;;;;;;;2.30;2.05;;;;;;;14.96;64.11;98350.25;5091612;28;20257;-77
2021/05/15 11:11:10;;;;;;;4.97;3.30;;;;;;;14.79;64.60;98350.03;5091606;28;20194;-76
2021/05/15 11:13:46;;;;;;;7.82;2.28;;;;;;;14.91;63.64;98348.00;5091938;28;20207;-77
2021/05/15 11:16:13;;;;;;;2.95;2.58;;;;;;;14.84;63.14;98340.63;5091944;28;20192;-75
2021/05/15 11:18:40;;;;;;;9.20;2.97;;;;;;;15.27;62.19;98331.88;5091558;28;20620;-77
2021/05/15 11:21:07;;;;;;;3.83;2.75;;;;;;;15.80;59.63;98322.19;5092106;28;20625;-76
2021/05/15 11:23:36;;;;;;;2.47;1.88;;;;;;;16.04;58.10;98314.28;5091714;28;20224;-76
2021/05/15 11:26:06;;;;;;;3.00;2.42;;;;;;;16.43;57.37;98321.25;5091886;28;20203;-76
2021/05/15 11:28:33;;;;;;;4.65;3.50;;;;;;;16.81;56.13;98327.34;5091421;28;20227;-76
2021/05/15 11:30:59;;;;;;;3.67;2.22;;;;;;;16.87;55.52;98316.69;5091473;28;20199;-76